sensor_id;sensor_type;location;lat;lon;timestamp;temperature;humidity
11700;DHT22;5906;51.660;6.674;2023-07-16T00:02:03;18.30;99.90
11700;DHT22;5906;51.660;6.674;2023-07-16T00:04:34;18.40;99.90
11700;DHT22;5906;51.660;6.674;2023-07-16T00:07:01;18.40;99.90
11700;DHT22;5906;51.660;6.674;2023-07-16T00:09:28;18.30;99.90
11700;DHT22;5906;51.660;6.674;2023-07-16T00:11:56;18.20;99.90
11700;DHT22;5906;51.660;6.674;2023-07-16T00:14:23;18.20;99.90
11700;DHT22;5906;51.660;6.674;2023-07-16T00:16:50;18.10;99.90
11700;DHT22;5906;51.660;6.674;2023-07-16T00:19:17;18.10;99.90
11700;DHT22;5906;51.660;6.674;2023-07-16T00:21:44;18.10;99.90
11700;DHT22;5906;51.660;6.674;2023-07-16T00:24:12;18.00;99.90
11700;DHT22;5906;51.660;6.674;2023-07-16T00:26:39;18.00;99.90
11700;DHT22;5906;51.660;6.674;2023-07-16T00:29:06;18.00;99.90
11700;DHT22;5906;51.660;6.674;2023-07-16T00:31:33;18.00;99.90
11700;DHT22;5906;51.660;6.674;2023-07-16T00:34:00;18.00;99.90
11700;DHT22;5906;51.660;6.674;2023-07-16T00:36:27;18.00;99.90
11700;DHT22;5906;51.660;6.674;2023-07-16T00:38:54;18.00;99.90
11700;DHT22;5906;51.660;6.674;2023-07-16T00:41:21;18.00;99.90
11700;DHT22;5906;51.660;6.674;2023-07-16T00:43:48;18.00;99.90
11700;DHT22;5906;51.660;6.674;2023-07-16T00:46:15;18.00;99.90
11700;DHT22;5906;51.660;6.674;2023-07-16T00:48:43;18.00;99.90
11700;DHT22;5906;51.660;6.674;2023-07-16T00:51:11;18.00;99.90
11700;DHT22;5906;51.660;6.674;2023-07-16T00:53:41;18.00;99.90
11700;DHT22;5906;51.660;6.674;2023-07-16T00:56:09;17.90;99.90
11700;DHT22;5906;51.660;6.674;2023-07-16T00:58:37;17.90;99.90
11700;DHT22;5906;51.660;6.674;2023-07-16T01:01:03;17.80;99.90
11700;DHT22;5906;51.660;6.674;2023-07-16T01:03:30;17.90;99.90
11700;DHT22;5906;51.660;6.674;2023-07-16T01:06:04;17.80;99.90
11700;DHT22;5906;51.660;6.674;2023-07-16T01:08:56;17.70;99.90
11700;DHT22;5906;51.660;6.674;2023-07-16T01:11:24;17.70;99.90
11700;DHT22;5906;51.660;6.674;2023-07-16T01:13:52;17.60;99.90
11700;DHT22;5906;51.660;6.674;2023-07-16T01:16:21;17.50;99.90
11700;DHT22;5906;51.660;6.674;2023-07-16T01:18:48;17.50;99.90
11700;DHT22;5906;51.660;6.674;2023-07-16T01:21:18;17.60;99.90
11700;DHT22;5906;51.660;6.674;2023-07-16T01:24:04;17.50;99.90
11700;DHT22;5906;51.660;6.674;2023-07-16T01:29:31;17.60;99.90
11700;DHT22;5906;51.660;6.674;2023-07-16T01:32:01;17.70;99.90
11700;DHT22;5906;51.660;6.674;2023-07-16T01:34:32;17.70;99.90
11700;DHT22;5906;51.660;6.674;2023-07-16T01:37:01;17.60;99.90
11700;DHT22;5906;51.660;6.674;2023-07-16T01:39:30;17.50;99.90
11700;DHT22;5906;51.660;6.674;2023-07-16T01:41:57;17.50;99.90
11700;DHT22;5906;51.660;6.674;2023-07-16T01:44:25;17.50;99.90
11700;DHT22;5906;51.660;6.674;2023-07-16T01:49:35;17.40;99.90
11700;DHT22;5906;51.660;6.674;2023-07-16T01:52:03;17.40;99.90
11700;DHT22;5906;51.660;6.674;2023-07-16T01:54:31;17.30;99.90
11700;DHT22;5906;51.660;6.674;2023-07-16T01:56:58;17.20;99.90
11700;DHT22;5906;51.660;6.674;2023-07-16T01:59:26;17.20;99.90
11700;DHT22;5906;51.660;6.674;2023-07-16T02:01:53;17.20;99.90
11700;DHT22;5906;51.660;6.674;2023-07-16T02:04:21;17.20;99.90
11700;DHT22;5906;51.660;6.674;2023-07-16T02:06:48;17.20;99.90
11700;DHT22;5906;51.660;6.674;2023-07-16T02:09:15;17.20;99.90
11700;DHT22;5906;51.660;6.674;2023-07-16T02:11:42;17.20;99.90
11700;DHT22;5906;51.660;6.674;2023-07-16T02:14:09;17.20;99.90
11700;DHT22;5906;51.660;6.674;2023-07-16T02:16:36;17.10;99.90
11700;DHT22;5906;51.660;6.674;2023-07-16T02:19:03;17.10;99.90
11700;DHT22;5906;51.660;6.674;2023-07-16T02:21:30;17.10;99.90
11700;DHT22;5906;51.660;6.674;2023-07-16T02:23:57;17.10;99.90
11700;DHT22;5906;51.660;6.674;2023-07-16T02:26:25;17.00;99.90
11700;DHT22;5906;51.660;6.674;2023-07-16T02:28:52;17.00;99.90
11700;DHT22;5906;51.660;6.674;2023-07-16T02:31:19;17.00;99.90
11700;DHT22;5906;51.660;6.674;2023-07-16T02:33:46;17.00;99.90
11700;DHT22;5906;51.660;6.674;2023-07-16T02:36:13;17.00;99.90
11700;DHT22;5906;51.660;6.674;2023-07-16T02:38:40;17.00;99.90
11700;DHT22;5906;51.660;6.674;2023-07-16T02:41:07;17.00;99.90
11700;DHT22;5906;51.660;6.674;2023-07-16T02:43:34;17.00;99.90
11700;DHT22;5906;51.660;6.674;2023-07-16T02:46:02;17.00;99.90
11700;DHT22;5906;51.660;6.674;2023-07-16T02:48:29;17.00;99.90
11700;DHT22;5906;51.660;6.674;2023-07-16T02:50:56;17.00;99.90
11700;DHT22;5906;51.660;6.674;2023-07-16T02:53:22;17.00;99.90
11700;DHT22;5906;51.660;6.674;2023-07-16T02:55:50;17.00;99.90
11700;DHT22;5906;51.660;6.674;2023-07-16T02:58:17;17.00;99.90
11700;DHT22;5906;51.660;6.674;2023-07-16T03:00:44;17.00;99.90
11700;DHT22;5906;51.660;6.674;2023-07-16T03:03:11;16.90;99.90
11700;DHT22;5906;51.660;6.674;2023-07-16T03:05:38;16.90;99.90
11700;DHT22;5906;51.660;6.674;2023-07-16T03:08:05;16.90;99.90
11700;DHT22;5906;51.660;6.674;2023-07-16T03:10:32;16.90;99.90
11700;DHT22;5906;51.660;6.674;2023-07-16T03:12:59;16.90;99.90
11700;DHT22;5906;51.660;6.674;2023-07-16T03:15:26;16.90;99.90
11700;DHT22;5906;51.660;6.674;2023-07-16T03:17:53;16.90;99.90
11700;DHT22;5906;51.660;6.674;2023-07-16T03:20:20;16.90;99.90
11700;DHT22;5906;51.660;6.674;2023-07-16T03:22:48;16.90;99.90
11700;DHT22;5906;51.660;6.674;2023-07-16T03:25:15;16.80;99.90
11700;DHT22;5906;51.660;6.674;2023-07-16T03:27:42;16.80;99.90
11700;DHT22;5906;51.660;6.674;2023-07-16T03:30:09;16.80;99.90
11700;DHT22;5906;51.660;6.674;2023-07-16T03:32:36;16.80;99.90
11700;DHT22;5906;51.660;6.674;2023-07-16T03:35:18;16.80;99.90
11700;DHT22;5906;51.660;6.674;2023-07-16T03:37:45;16.80;99.90
11700;DHT22;5906;51.660;6.674;2023-07-16T03:40:14;16.80;99.90
11700;DHT22;5906;51.660;6.674;2023-07-16T03:42:42;16.90;99.90
11700;DHT22;5906;51.660;6.674;2023-07-16T03:45:10;16.80;99.90
11700;DHT22;5906;51.660;6.674;2023-07-16T03:47:37;16.70;99.90
11700;DHT22;5906;51.660;6.674;2023-07-16T03:50:05;16.70;99.90
11700;DHT22;5906;51.660;6.674;2023-07-16T03:52:33;16.70;99.90
11700;DHT22;5906;51.660;6.674;2023-07-16T03:55:00;16.70;99.90
11700;DHT22;5906;51.660;6.674;2023-07-16T03:57:30;16.70;99.90
11700;DHT22;5906;51.660;6.674;2023-07-16T03:59:58;16.60;99.90
11700;DHT22;5906;51.660;6.674;2023-07-16T04:02:25;16.70;99.90
11700;DHT22;5906;51.660;6.674;2023-07-16T04:04:52;16.60;99.90
11700;DHT22;5906;51.660;6.674;2023-07-16T04:07:19;16.60;99.90
11700;DHT22;5906;51.660;6.674;2023-07-16T04:09:46;16.70;99.90
11700;DHT22;5906;51.660;6.674;2023-07-16T04:12:13;16.70;99.90
11700;DHT22;5906;51.660;6.674;2023-07-16T04:14:40;16.60;99.90
11700;DHT22;5906;51.660;6.674;2023-07-16T04:17:08;16.50;99.90
11700;DHT22;5906;51.660;6.674;2023-07-16T04:19:35;16.50;99.90
11700;DHT22;5906;51.660;6.674;2023-07-16T04:22:03;16.50;99.90
11700;DHT22;5906;51.660;6.674;2023-07-16T04:24:30;16.50;99.90
11700;DHT22;5906;51.660;6.674;2023-07-16T04:26:58;16.60;99.90
11700;DHT22;5906;51.660;6.674;2023-07-16T04:29:25;16.60;99.90
11700;DHT22;5906;51.660;6.674;2023-07-16T04:31:52;16.60;99.90
11700;DHT22;5906;51.660;6.674;2023-07-16T04:34:19;16.60;99.90
11700;DHT22;5906;51.660;6.674;2023-07-16T04:36:46;16.60;99.90
11700;DHT22;5906;51.660;6.674;2023-07-16T04:39:13;16.70;99.90
11700;DHT22;5906;51.660;6.674;2023-07-16T04:41:40;16.70;99.90
11700;DHT22;5906;51.660;6.674;2023-07-16T04:44:07;16.70;99.90
11700;DHT22;5906;51.660;6.674;2023-07-16T04:46:34;16.70;99.90
11700;DHT22;5906;51.660;6.674;2023-07-16T04:49:02;16.80;99.90
11700;DHT22;5906;51.660;6.674;2023-07-16T04:51:29;16.80;99.90
11700;DHT22;5906;51.660;6.674;2023-07-16T04:53:56;16.90;99.90
11700;DHT22;5906;51.660;6.674;2023-07-16T04:56:23;17.00;99.90
11700;DHT22;5906;51.660;6.674;2023-07-16T04:58:50;17.30;99.90
11700;DHT22;5906;51.660;6.674;2023-07-16T05:01:17;17.50;99.90
11700;DHT22;5906;51.660;6.674;2023-07-16T05:03:44;17.70;99.90
11700;DHT22;5906;51.660;6.674;2023-07-16T05:06:11;17.80;1.00
11700;DHT22;5906;51.660;6.674;2023-07-16T05:08:38;17.90;1.00
11700;DHT22;5906;51.660;6.674;2023-07-16T05:11:05;18.10;1.00
11700;DHT22;5906;51.660;6.674;2023-07-16T05:13:32;18.30;1.00
11700;DHT22;5906;51.660;6.674;2023-07-16T05:15:59;18.30;1.00
11700;DHT22;5906;51.660;6.674;2023-07-16T05:18:27;18.40;14.60
11700;DHT22;5906;51.660;6.674;2023-07-16T05:20:54;18.40;99.90
11700;DHT22;5906;51.660;6.674;2023-07-16T05:23:21;18.40;1.00
11700;DHT22;5906;51.660;6.674;2023-07-16T05:25:49;18.50;1.00
11700;DHT22;5906;51.660;6.674;2023-07-16T05:28:18;18.50;1.00
11700;DHT22;5906;51.660;6.674;2023-07-16T05:30:45;18.60;1.00
11700;DHT22;5906;51.660;6.674;2023-07-16T05:33:12;18.60;1.00
11700;DHT22;5906;51.660;6.674;2023-07-16T05:35:39;18.60;99.90
11700;DHT22;5906;51.660;6.674;2023-07-16T05:38:06;18.70;1.00
11700;DHT22;5906;51.660;6.674;2023-07-16T05:40:34;18.70;1.00
11700;DHT22;5906;51.660;6.674;2023-07-16T05:43:01;18.80;99.90
11700;DHT22;5906;51.660;6.674;2023-07-16T05:45:28;18.80;1.00
11700;DHT22;5906;51.660;6.674;2023-07-16T05:47:55;18.90;99.90
11700;DHT22;5906;51.660;6.674;2023-07-16T05:50:22;18.90;1.00
11700;DHT22;5906;51.660;6.674;2023-07-16T05:52:49;19.00;13.90
11700;DHT22;5906;51.660;6.674;2023-07-16T05:55:17;19.10;1.00
11700;DHT22;5906;51.660;6.674;2023-07-16T05:57:44;19.10;1.00
11700;DHT22;5906;51.660;6.674;2023-07-16T06:00:11;19.30;1.00
11700;DHT22;5906;51.660;6.674;2023-07-16T06:02:38;19.30;99.90
11700;DHT22;5906;51.660;6.674;2023-07-16T06:05:06;19.30;1.00
11700;DHT22;5906;51.660;6.674;2023-07-16T06:07:33;19.30;1.00
11700;DHT22;5906;51.660;6.674;2023-07-16T06:10:00;19.30;99.90
11700;DHT22;5906;51.660;6.674;2023-07-16T06:12:27;19.40;1.00
11700;DHT22;5906;51.660;6.674;2023-07-16T06:14:54;19.40;1.00
11700;DHT22;5906;51.660;6.674;2023-07-16T06:17:21;19.50;1.00
11700;DHT22;5906;51.660;6.674;2023-07-16T06:19:49;19.60;99.90
11700;DHT22;5906;51.660;6.674;2023-07-16T06:22:17;19.80;99.90
11700;DHT22;5906;51.660;6.674;2023-07-16T06:24:44;19.80;99.90
11700;DHT22;5906;51.660;6.674;2023-07-16T06:27:11;20.00;1.00
11700;DHT22;5906;51.660;6.674;2023-07-16T06:29:38;20.10;1.00
11700;DHT22;5906;51.660;6.674;2023-07-16T06:32:06;20.20;1.00
11700;DHT22;5906;51.660;6.674;2023-07-16T06:34:33;20.20;99.90
11700;DHT22;5906;51.660;6.674;2023-07-16T06:37:01;20.10;99.90
11700;DHT22;5906;51.660;6.674;2023-07-16T06:39:28;20.10;99.90
11700;DHT22;5906;51.660;6.674;2023-07-16T06:41:55;20.10;99.90
11700;DHT22;5906;51.660;6.674;2023-07-16T06:44:22;20.20;99.90
11700;DHT22;5906;51.660;6.674;2023-07-16T06:46:50;20.30;99.90
11700;DHT22;5906;51.660;6.674;2023-07-16T06:49:17;20.40;99.90
11700;DHT22;5906;51.660;6.674;2023-07-16T06:51:44;20.60;99.90
11700;DHT22;5906;51.660;6.674;2023-07-16T06:54:11;20.70;99.90
11700;DHT22;5906;51.660;6.674;2023-07-16T06:56:38;20.80;99.90
11700;DHT22;5906;51.660;6.674;2023-07-16T06:59:05;20.60;99.90
11700;DHT22;5906;51.660;6.674;2023-07-16T07:01:32;20.70;99.90
11700;DHT22;5906;51.660;6.674;2023-07-16T07:03:59;20.70;99.90
11700;DHT22;5906;51.660;6.674;2023-07-16T07:06:27;20.60;99.90
11700;DHT22;5906;51.660;6.674;2023-07-16T07:08:54;20.60;99.90
11700;DHT22;5906;51.660;6.674;2023-07-16T07:11:21;20.70;99.90
11700;DHT22;5906;51.660;6.674;2023-07-16T07:13:48;20.70;99.90
11700;DHT22;5906;51.660;6.674;2023-07-16T07:16:17;20.80;99.90
11700;DHT22;5906;51.660;6.674;2023-07-16T07:18:45;20.70;99.90
11700;DHT22;5906;51.660;6.674;2023-07-16T07:21:12;20.90;99.90
11700;DHT22;5906;51.660;6.674;2023-07-16T07:23:39;20.90;99.90
11700;DHT22;5906;51.660;6.674;2023-07-16T07:26:06;21.20;99.90
11700;DHT22;5906;51.660;6.674;2023-07-16T07:28:34;21.20;99.50
11700;DHT22;5906;51.660;6.674;2023-07-16T07:31:01;21.40;98.30
11700;DHT22;5906;51.660;6.674;2023-07-16T07:33:28;21.50;99.30
11700;DHT22;5906;51.660;6.674;2023-07-16T07:35:56;21.60;96.90
11700;DHT22;5906;51.660;6.674;2023-07-16T07:38:23;21.80;97.10
11700;DHT22;5906;51.660;6.674;2023-07-16T07:40:50;21.80;96.00
11700;DHT22;5906;51.660;6.674;2023-07-16T07:43:17;21.90;93.50
11700;DHT22;5906;51.660;6.674;2023-07-16T07:45:44;21.90;94.90
11700;DHT22;5906;51.660;6.674;2023-07-16T07:48:11;21.80;93.90
11700;DHT22;5906;51.660;6.674;2023-07-16T07:50:38;21.90;96.20
11700;DHT22;5906;51.660;6.674;2023-07-16T07:53:06;22.00;98.70
11700;DHT22;5906;51.660;6.674;2023-07-16T07:55:36;22.20;94.00
11700;DHT22;5906;51.660;6.674;2023-07-16T07:58:03;22.30;91.50
11700;DHT22;5906;51.660;6.674;2023-07-16T08:00:30;22.10;94.20
11700;DHT22;5906;51.660;6.674;2023-07-16T08:02:57;22.30;92.60
11700;DHT22;5906;51.660;6.674;2023-07-16T08:05:24;22.10;92.80
11700;DHT22;5906;51.660;6.674;2023-07-16T08:07:51;22.10;91.90
11700;DHT22;5906;51.660;6.674;2023-07-16T08:10:20;22.10;94.00
11700;DHT22;5906;51.660;6.674;2023-07-16T08:12:47;22.40;93.50
11700;DHT22;5906;51.660;6.674;2023-07-16T08:15:14;22.40;90.90
11700;DHT22;5906;51.660;6.674;2023-07-16T08:17:45;22.60;90.30
11700;DHT22;5906;51.660;6.674;2023-07-16T08:20:12;22.80;89.00
11700;DHT22;5906;51.660;6.674;2023-07-16T08:22:40;23.00;88.80
11700;DHT22;5906;51.660;6.674;2023-07-16T08:25:08;23.00;84.70
11700;DHT22;5906;51.660;6.674;2023-07-16T08:27:35;23.20;84.50
11700;DHT22;5906;51.660;6.674;2023-07-16T08:30:02;23.30;85.10
11700;DHT22;5906;51.660;6.674;2023-07-16T08:32:29;23.60;77.60
11700;DHT22;5906;51.660;6.674;2023-07-16T08:34:56;23.20;77.00
11700;DHT22;5906;51.660;6.674;2023-07-16T08:37:23;23.10;77.80
11700;DHT22;5906;51.660;6.674;2023-07-16T08:39:53;22.90;84.10
11700;DHT22;5906;51.660;6.674;2023-07-16T08:42:21;23.10;82.40
11700;DHT22;5906;51.660;6.674;2023-07-16T08:44:49;23.20;82.60
11700;DHT22;5906;51.660;6.674;2023-07-16T08:47:17;23.30;78.20
11700;DHT22;5906;51.660;6.674;2023-07-16T08:49:54;23.50;76.30
11700;DHT22;5906;51.660;6.674;2023-07-16T08:52:27;23.60;74.90
11700;DHT22;5906;51.660;6.674;2023-07-16T08:54:55;23.50;75.20
11700;DHT22;5906;51.660;6.674;2023-07-16T08:57:23;23.50;77.20
11700;DHT22;5906;51.660;6.674;2023-07-16T08:59:51;23.50;69.70
11700;DHT22;5906;51.660;6.674;2023-07-16T09:02:18;23.60;72.30
11700;DHT22;5906;51.660;6.674;2023-07-16T09:04:50;23.70;70.90
11700;DHT22;5906;51.660;6.674;2023-07-16T09:07:20;23.50;65.60
11700;DHT22;5906;51.660;6.674;2023-07-16T09:09:59;23.60;76.40
11700;DHT22;5906;51.660;6.674;2023-07-16T09:12:27;23.70;67.10
11700;DHT22;5906;51.660;6.674;2023-07-16T09:14:55;23.80;67.60
11700;DHT22;5906;51.660;6.674;2023-07-16T09:17:24;23.90;67.60
11700;DHT22;5906;51.660;6.674;2023-07-16T09:19:52;23.90;61.50
11700;DHT22;5906;51.660;6.674;2023-07-16T09:22:20;23.90;58.10
11700;DHT22;5906;51.660;6.674;2023-07-16T09:24:48;23.90;59.00
11700;DHT22;5906;51.660;6.674;2023-07-16T09:27:15;24.30;62.50
11700;DHT22;5906;51.660;6.674;2023-07-16T09:29:42;24.50;53.80
11700;DHT22;5906;51.660;6.674;2023-07-16T09:32:09;24.40;50.30
11700;DHT22;5906;51.660;6.674;2023-07-16T09:34:36;24.20;49.70
11700;DHT22;5906;51.660;6.674;2023-07-16T09:37:05;23.80;52.90
11700;DHT22;5906;51.660;6.674;2023-07-16T09:39:34;23.90;56.80
11700;DHT22;5906;51.660;6.674;2023-07-16T09:42:02;23.80;55.30
11700;DHT22;5906;51.660;6.674;2023-07-16T09:44:29;23.90;56.40
11700;DHT22;5906;51.660;6.674;2023-07-16T09:46:57;24.10;55.60
11700;DHT22;5906;51.660;6.674;2023-07-16T09:49:28;24.00;52.20
11700;DHT22;5906;51.660;6.674;2023-07-16T09:51:57;24.00;55.30
11700;DHT22;5906;51.660;6.674;2023-07-16T09:54:25;24.00;52.10
11700;DHT22;5906;51.660;6.674;2023-07-16T09:56:58;24.10;54.80
11700;DHT22;5906;51.660;6.674;2023-07-16T09:59:29;24.40;53.00
11700;DHT22;5906;51.660;6.674;2023-07-16T10:01:56;24.60;50.30
11700;DHT22;5906;51.660;6.674;2023-07-16T10:04:24;24.60;54.00
11700;DHT22;5906;51.660;6.674;2023-07-16T10:07:00;24.90;49.90
11700;DHT22;5906;51.660;6.674;2023-07-16T10:09:50;25.00;49.60
11700;DHT22;5906;51.660;6.674;2023-07-16T10:12:21;25.00;44.90
11700;DHT22;5906;51.660;6.674;2023-07-16T10:14:54;25.00;43.20
11700;DHT22;5906;51.660;6.674;2023-07-16T10:17:26;25.10;47.70
11700;DHT22;5906;51.660;6.674;2023-07-16T10:20:10;25.20;43.20
11700;DHT22;5906;51.660;6.674;2023-07-16T10:22:46;25.40;44.20
11700;DHT22;5906;51.660;6.674;2023-07-16T10:27:49;25.30;41.30
11700;DHT22;5906;51.660;6.674;2023-07-16T10:30:17;25.00;39.60
11700;DHT22;5906;51.660;6.674;2023-07-16T10:32:45;25.10;41.60
11700;DHT22;5906;51.660;6.674;2023-07-16T10:35:13;25.30;38.40
11700;DHT22;5906;51.660;6.674;2023-07-16T10:37:40;25.10;35.00
11700;DHT22;5906;51.660;6.674;2023-07-16T10:40:12;25.00;39.70
11700;DHT22;5906;51.660;6.674;2023-07-16T10:42:43;25.20;35.80
11700;DHT22;5906;51.660;6.674;2023-07-16T10:45:12;24.90;36.20
11700;DHT22;5906;51.660;6.674;2023-07-16T10:47:53;25.10;42.80
11700;DHT22;5906;51.660;6.674;2023-07-16T10:50:20;25.20;36.60
11700;DHT22;5906;51.660;6.674;2023-07-16T10:52:54;25.30;37.20
11700;DHT22;5906;51.660;6.674;2023-07-16T10:55:22;25.60;36.40
11700;DHT22;5906;51.660;6.674;2023-07-16T10:57:51;25.50;38.40
11700;DHT22;5906;51.660;6.674;2023-07-16T11:00:18;25.80;37.20
11700;DHT22;5906;51.660;6.674;2023-07-16T11:02:46;25.80;34.00
11700;DHT22;5906;51.660;6.674;2023-07-16T11:05:15;25.60;32.10
11700;DHT22;5906;51.660;6.674;2023-07-16T11:07:46;25.80;35.50
11700;DHT22;5906;51.660;6.674;2023-07-16T11:10:20;25.80;31.90
11700;DHT22;5906;51.660;6.674;2023-07-16T11:12:52;25.50;31.30
11700;DHT22;5906;51.660;6.674;2023-07-16T11:15:34;25.10;31.10
11700;DHT22;5906;51.660;6.674;2023-07-16T11:18:02;25.10;32.70
11700;DHT22;5906;51.660;6.674;2023-07-16T11:20:30;25.30;36.80
11700;DHT22;5906;51.660;6.674;2023-07-16T11:23:01;25.30;31.60
11700;DHT22;5906;51.660;6.674;2023-07-16T11:25:28;25.20;30.60
11700;DHT22;5906;51.660;6.674;2023-07-16T11:27:56;25.10;32.70
11700;DHT22;5906;51.660;6.674;2023-07-16T11:30:24;25.00;36.10
11700;DHT22;5906;51.660;6.674;2023-07-16T11:32:52;25.30;36.20
11700;DHT22;5906;51.660;6.674;2023-07-16T11:35:21;25.60;32.10
11700;DHT22;5906;51.660;6.674;2023-07-16T11:37:48;25.80;31.80
11700;DHT22;5906;51.660;6.674;2023-07-16T11:40:18;25.70;30.60
11700;DHT22;5906;51.660;6.674;2023-07-16T11:42:46;25.70;30.40
11700;DHT22;5906;51.660;6.674;2023-07-16T11:45:19;25.20;29.80
11700;DHT22;5906;51.660;6.674;2023-07-16T11:47:46;24.70;31.60
11700;DHT22;5906;51.660;6.674;2023-07-16T11:50:14;24.50;35.50
11700;DHT22;5906;51.660;6.674;2023-07-16T11:52:42;24.60;35.10
11700;DHT22;5906;51.660;6.674;2023-07-16T11:55:09;24.40;33.30
11700;DHT22;5906;51.660;6.674;2023-07-16T11:57:36;24.20;39.40
11700;DHT22;5906;51.660;6.674;2023-07-16T12:00:03;24.40;38.50
11700;DHT22;5906;51.660;6.674;2023-07-16T12:02:31;24.70;36.50
11700;DHT22;5906;51.660;6.674;2023-07-16T12:05:00;24.90;35.20
11700;DHT22;5906;51.660;6.674;2023-07-16T12:07:37;25.10;34.00
11700;DHT22;5906;51.660;6.674;2023-07-16T12:10:06;25.10;31.70
11700;DHT22;5906;51.660;6.674;2023-07-16T12:12:33;25.00;32.20
11700;DHT22;5906;51.660;6.674;2023-07-16T12:15:06;25.00;34.60
11700;DHT22;5906;51.660;6.674;2023-07-16T12:17:34;25.00;35.40
11700;DHT22;5906;51.660;6.674;2023-07-16T12:20:02;25.00;33.70
11700;DHT22;5906;51.660;6.674;2023-07-16T12:22:31;25.00;37.00
11700;DHT22;5906;51.660;6.674;2023-07-16T12:24:58;25.40;35.90
11700;DHT22;5906;51.660;6.674;2023-07-16T12:27:25;25.70;34.60
11700;DHT22;5906;51.660;6.674;2023-07-16T12:29:52;25.70;30.30
11700;DHT22;5906;51.660;6.674;2023-07-16T12:32:20;25.80;30.00
11700;DHT22;5906;51.660;6.674;2023-07-16T12:34:47;26.00;30.50
11700;DHT22;5906;51.660;6.674;2023-07-16T12:37:14;25.90;28.50
11700;DHT22;5906;51.660;6.674;2023-07-16T12:39:43;25.90;28.90
11700;DHT22;5906;51.660;6.674;2023-07-16T12:42:10;26.20;26.40
11700;DHT22;5906;51.660;6.674;2023-07-16T12:44:37;26.20;25.10
11700;DHT22;5906;51.660;6.674;2023-07-16T12:47:05;26.10;24.90
11700;DHT22;5906;51.660;6.674;2023-07-16T12:49:35;26.20;25.50
11700;DHT22;5906;51.660;6.674;2023-07-16T12:52:03;26.20;24.00
11700;DHT22;5906;51.660;6.674;2023-07-16T12:54:30;26.40;24.20
11700;DHT22;5906;51.660;6.674;2023-07-16T12:56:57;26.00;25.50
11700;DHT22;5906;51.660;6.674;2023-07-16T12:59:24;26.00;25.30
11700;DHT22;5906;51.660;6.674;2023-07-16T13:01:51;26.00;24.40
11700;DHT22;5906;51.660;6.674;2023-07-16T13:04:19;26.00;24.00
11700;DHT22;5906;51.660;6.674;2023-07-16T13:06:46;26.00;24.40
11700;DHT22;5906;51.660;6.674;2023-07-16T13:09:15;26.20;24.20
11700;DHT22;5906;51.660;6.674;2023-07-16T13:11:43;26.00;22.10
11700;DHT22;5906;51.660;6.674;2023-07-16T13:14:10;26.00;23.90
11700;DHT22;5906;51.660;6.674;2023-07-16T13:16:37;25.80;22.90
11700;DHT22;5906;51.660;6.674;2023-07-16T13:19:04;25.80;23.90
11700;DHT22;5906;51.660;6.674;2023-07-16T13:21:31;25.70;27.20
11700;DHT22;5906;51.660;6.674;2023-07-16T13:23:59;26.10;26.90
11700;DHT22;5906;51.660;6.674;2023-07-16T13:26:26;26.20;24.60
11700;DHT22;5906;51.660;6.674;2023-07-16T13:28:53;26.20;22.20
11700;DHT22;5906;51.660;6.674;2023-07-16T13:31:20;26.10;22.10
11700;DHT22;5906;51.660;6.674;2023-07-16T13:33:47;26.00;21.40
11700;DHT22;5906;51.660;6.674;2023-07-16T13:36:14;26.10;20.50
11700;DHT22;5906;51.660;6.674;2023-07-16T13:38:42;26.30;20.30
11700;DHT22;5906;51.660;6.674;2023-07-16T13:41:09;26.50;19.50
11700;DHT22;5906;51.660;6.674;2023-07-16T13:43:37;26.20;18.10
11700;DHT22;5906;51.660;6.674;2023-07-16T13:46:04;26.40;18.90
11700;DHT22;5906;51.660;6.674;2023-07-16T13:48:31;26.40;18.40
11700;DHT22;5906;51.660;6.674;2023-07-16T13:51:18;26.50;19.10
11700;DHT22;5906;51.660;6.674;2023-07-16T13:53:45;26.50;18.50
11700;DHT22;5906;51.660;6.674;2023-07-16T13:56:12;26.60;17.50
11700;DHT22;5906;51.660;6.674;2023-07-16T13:58:39;26.60;16.90
11700;DHT22;5906;51.660;6.674;2023-07-16T14:01:06;26.60;17.10
11700;DHT22;5906;51.660;6.674;2023-07-16T14:03:33;26.70;16.60
11700;DHT22;5906;51.660;6.674;2023-07-16T14:06:00;26.50;16.00
11700;DHT22;5906;51.660;6.674;2023-07-16T14:08:27;26.50;16.70
11700;DHT22;5906;51.660;6.674;2023-07-16T14:10:54;26.50;17.40
11700;DHT22;5906;51.660;6.674;2023-07-16T14:13:21;26.20;16.40
11700;DHT22;5906;51.660;6.674;2023-07-16T14:15:48;26.00;16.80
11700;DHT22;5906;51.660;6.674;2023-07-16T14:18:15;25.90;17.70
11700;DHT22;5906;51.660;6.674;2023-07-16T14:20:42;26.00;18.90
11700;DHT22;5906;51.660;6.674;2023-07-16T14:23:09;26.10;18.40
11700;DHT22;5906;51.660;6.674;2023-07-16T14:25:37;26.20;17.60
11700;DHT22;5906;51.660;6.674;2023-07-16T14:28:04;26.40;17.70
11700;DHT22;5906;51.660;6.674;2023-07-16T14:30:31;26.40;17.10
11700;DHT22;5906;51.660;6.674;2023-07-16T14:32:58;26.30;16.50
11700;DHT22;5906;51.660;6.674;2023-07-16T14:35:26;26.10;17.20
11700;DHT22;5906;51.660;6.674;2023-07-16T14:38:03;26.00;17.80
11700;DHT22;5906;51.660;6.674;2023-07-16T14:40:30;26.00;16.90
11700;DHT22;5906;51.660;6.674;2023-07-16T14:43:00;26.00;16.80
11700;DHT22;5906;51.660;6.674;2023-07-16T14:45:27;26.10;16.70
11700;DHT22;5906;51.660;6.674;2023-07-16T14:47:55;26.20;17.30
11700;DHT22;5906;51.660;6.674;2023-07-16T14:50:22;26.00;15.90
11700;DHT22;5906;51.660;6.674;2023-07-16T14:52:50;26.10;17.40
11700;DHT22;5906;51.660;6.674;2023-07-16T14:55:17;26.20;16.90
11700;DHT22;5906;51.660;6.674;2023-07-16T14:57:44;26.20;16.90
11700;DHT22;5906;51.660;6.674;2023-07-16T15:00:11;26.30;16.00
11700;DHT22;5906;51.660;6.674;2023-07-16T15:02:41;26.40;16.00
11700;DHT22;5906;51.660;6.674;2023-07-16T15:05:09;26.50;16.60
11700;DHT22;5906;51.660;6.674;2023-07-16T15:07:36;26.60;15.50
11700;DHT22;5906;51.660;6.674;2023-07-16T15:10:04;26.70;15.50
11700;DHT22;5906;51.660;6.674;2023-07-16T15:12:31;26.80;14.30
11700;DHT22;5906;51.660;6.674;2023-07-16T15:14:59;26.80;14.00
11700;DHT22;5906;51.660;6.674;2023-07-16T15:17:26;26.80;13.90
11700;DHT22;5906;51.660;6.674;2023-07-16T15:19:54;26.80;13.50
11700;DHT22;5906;51.660;6.674;2023-07-16T15:22:21;26.90;15.60
11700;DHT22;5906;51.660;6.674;2023-07-16T15:24:49;27.00;15.60
11700;DHT22;5906;51.660;6.674;2023-07-16T15:27:17;26.90;13.90
11700;DHT22;5906;51.660;6.674;2023-07-16T15:29:44;26.60;14.70
11700;DHT22;5906;51.660;6.674;2023-07-16T15:32:11;26.40;14.10
11700;DHT22;5906;51.660;6.674;2023-07-16T15:34:40;26.30;13.90
11700;DHT22;5906;51.660;6.674;2023-07-16T15:37:08;26.40;15.00
11700;DHT22;5906;51.660;6.674;2023-07-16T15:39:38;26.10;13.30
11700;DHT22;5906;51.660;6.674;2023-07-16T15:42:06;26.10;14.10
11700;DHT22;5906;51.660;6.674;2023-07-16T15:44:33;26.20;14.50
11700;DHT22;5906;51.660;6.674;2023-07-16T15:47:01;26.10;14.60
11700;DHT22;5906;51.660;6.674;2023-07-16T15:49:30;26.00;14.50
11700;DHT22;5906;51.660;6.674;2023-07-16T15:51:58;25.70;15.70
11700;DHT22;5906;51.660;6.674;2023-07-16T15:54:25;25.70;16.40
11700;DHT22;5906;51.660;6.674;2023-07-16T15:56:52;25.70;16.40
11700;DHT22;5906;51.660;6.674;2023-07-16T15:59:19;25.60;16.10
11700;DHT22;5906;51.660;6.674;2023-07-16T16:01:46;25.80;16.70